createdAt,value
2022-12-06T00:00:03.117Z,-6.30995
2022-12-06T00:05:04.711Z,-6.16452
2022-12-06T00:10:06.334Z,-6.01845
2022-12-06T00:15:07.982Z,-6.35092
2022-12-06T00:20:09.597Z,-6.32392
2022-12-06T00:25:11.190Z,-6.27915
2022-12-06T00:30:12.928Z,-5.83968
2022-12-06T00:35:14.512Z,-5.68122
2022-12-06T00:40:16.112Z,-5.44688
2022-12-06T00:45:17.711Z,-4.83275
2022-12-06T00:50:19.320Z,-6.20802
2022-12-06T00:55:20.948Z,-6.54461
2022-12-06T01:00:22.560Z,-5.87651
2022-12-06T01:05:24.161Z,-5.56183
2022-12-06T01:10:25.910Z,-5.27127
2022-12-06T01:15:27.523Z,-4.65587
2022-12-06T01:20:29.193Z,-4.47932
2022-12-06T01:25:35.598Z,-4.93214
2022-12-06T01:30:38.093Z,-5.13727
2022-12-06T01:35:39.742Z,-5.01248
2022-12-06T01:40:41.466Z,-4.55775
2022-12-06T01:45:43.189Z,-4.66603
2022-12-06T01:50:44.809Z,-4.71271
2022-12-06T01:55:46.442Z,-5.23825
2022-12-06T02:00:48.293Z,-5.71329
2022-12-06T02:05:49.909Z,-5.28461
2022-12-06T02:10:51.552Z,-5.47387
2022-12-06T02:15:53.220Z,-4.98294
2022-12-06T02:20:54.836Z,-5.33415
2022-12-06T02:25:56.423Z,-5.28969
2022-12-06T02:30:58.077Z,-4.70478
2022-12-06T02:35:59.872Z,-5.26365
2022-12-06T02:41:01.508Z,-5.7098
2022-12-06T02:46:03.397Z,-5.23507
2022-12-06T02:51:05.031Z,-4.70922
2022-12-06T02:56:06.679Z,-5.98606
2022-12-06T03:01:08.350Z,-5.37384
2022-12-06T03:06:10.107Z,-5.57326
2022-12-06T03:11:11.710Z,-5.27699
2022-12-06T03:16:13.438Z,-5.80125
2022-12-06T03:21:15.118Z,-5.18967
2022-12-06T03:26:16.746Z,-5.01946
2022-12-06T03:31:18.386Z,-5.27953
2022-12-06T03:36:20.085Z,-5.94097
2022-12-06T03:41:21.685Z,-5.47164
2022-12-06T03:46:23.422Z,-5.14712
2022-12-06T03:51:25.219Z,-4.87212
2022-12-06T03:56:26.832Z,-5.32875
2022-12-06T04:01:28.569Z,-5.04233
2022-12-06T04:06:30.247Z,-5.53102
2022-12-06T04:11:32.103Z,-5.36971
2022-12-06T04:16:33.752Z,-5.02867
2022-12-06T04:21:35.450Z,-5.87333
2022-12-06T04:26:37.096Z,-6.15023
2022-12-06T04:31:38.688Z,-5.81777
2022-12-06T04:36:40.352Z,-4.82925
2022-12-06T04:41:41.980Z,-5.91779
2022-12-06T04:46:43.726Z,-5.54627
2022-12-06T04:51:45.409Z,-5.06201
2022-12-06T04:56:47.058Z,-5.01279
2022-12-06T05:01:48.809Z,-5.699
2022-12-06T05:06:50.400Z,-4.90483
2022-12-06T05:11:52.051Z,-5.09345
2022-12-06T05:16:53.905Z,-5.15918
2022-12-06T05:21:55.589Z,-5.16363
2022-12-06T05:26:57.171Z,-5.11028
2022-12-06T05:31:58.886Z,-5.66852
2022-12-06T05:37:00.621Z,-6.20993
2022-12-06T05:42:02.498Z,-6.53795
2022-12-06T05:47:04.116Z,-6.76784
2022-12-06T05:52:05.748Z,-7.27622
2022-12-06T05:57:07.380Z,-7.58201
2022-12-06T06:02:09.145Z,-7.55089
2022-12-06T06:07:10.968Z,-7.7503
2022-12-06T06:12:13.006Z,-8.18056
2022-12-06T06:17:14.704Z,-8.42442
2022-12-06T06:22:16.326Z,-7.93892
2022-12-06T06:27:17.982Z,-7.74586
2022-12-06T06:32:19.817Z,-7.94939
2022-12-06T06:37:22.652Z,-7.86779
2022-12-06T06:42:24.380Z,-7.72744
2022-12-06T06:47:25.979Z,-7.71061
2022-12-06T06:52:27.607Z,-7.81857
2022-12-06T06:57:29.230Z,-7.79507
2022-12-06T07:02:30.922Z,-7.67282
2022-12-06T07:07:32.683Z,-7.92653
2022-12-06T07:12:34.321Z,-7.93225
2022-12-06T07:17:35.927Z,-7.8554
2022-12-06T07:22:37.550Z,-6.92534
2022-12-06T07:27:39.138Z,-7.50897
2022-12-06T07:32:40.749Z,-7.67409
2022-12-06T07:37:42.380Z,-7.71664
2022-12-06T07:42:44.030Z,-7.39466
2022-12-06T07:47:45.664Z,-7.18509
2022-12-06T07:52:47.322Z,-7.38799
2022-12-06T07:57:48.906Z,-7.61503
2022-12-06T08:02:50.675Z,-7.62551
2022-12-06T08:07:52.374Z,-7.43213
2022-12-06T08:12:54.075Z,-7.38577
2022-12-06T08:17:55.718Z,-7.26257
2022-12-06T08:22:57.330Z,-7.43531
2022-12-06T08:27:58.913Z,-7.87509
2022-12-06T08:33:00.541Z,-7.81
2022-12-06T08:38:02.143Z,-7.67886
2022-12-06T08:43:03.739Z,-7.98051
2022-12-06T08:48:05.384Z,-7.58868
2022-12-06T08:53:07.216Z,-7.4985
2022-12-06T08:58:08.913Z,-7.57121
2022-12-06T09:03:10.526Z,-7.34544
2022-12-06T09:08:12.214Z,-7.63313
2022-12-06T09:13:13.854Z,-7.64424
2022-12-06T09:18:15.474Z,-7.17493
2022-12-06T09:23:17.061Z,-7.46769
2022-12-06T09:28:18.713Z,-7.62075
2022-12-06T09:33:20.312Z,-7.56677
2022-12-06T09:38:21.947Z,-7.79698
2022-12-06T09:43:23.584Z,-7.94241
2022-12-06T09:48:25.176Z,-8.02211
2022-12-06T09:53:26.769Z,-8.01893
2022-12-06T09:58:28.487Z,-8.04021
2022-12-06T10:03:30.200Z,-8.07958
2022-12-06T10:08:32.079Z,-8.11546
2022-12-06T10:13:33.820Z,-8.24407
2022-12-06T10:18:35.451Z,-8.09356
2022-12-06T10:23:37.067Z,-7.95543
2022-12-06T10:28:38.722Z,-7.93225
2022-12-06T10:33:40.357Z,-7.93066
2022-12-06T10:38:41.986Z,-8.17611
2022-12-06T10:43:43.625Z,-8.32218
2022-12-06T10:48:45.237Z,-8.23549
2022-12-06T10:53:46.864Z,-8.1215
2022-12-06T10:58:48.488Z,-8.12594
2022-12-06T11:03:50.085Z,-8.14785
2022-12-06T11:08:51.731Z,-8.13928
2022-12-06T11:13:53.403Z,-8.08022
2022-12-06T11:18:55.042Z,-8.11038
2022-12-06T11:23:56.694Z,-8.14595
2022-12-06T11:28:58.375Z,-8.29646
2022-12-06T11:33:59.980Z,-8.18119
2022-12-06T11:39:01.648Z,-8.32631
2022-12-06T11:44:03.387Z,-8.19898
2022-12-06T11:49:05.047Z,-8.05894
2022-12-06T11:54:06.783Z,-8.28725
2022-12-06T11:59:08.415Z,-8.37425
2022-12-06T12:04:10.075Z,-8.31392
2022-12-06T12:09:11.712Z,-8.12531
2022-12-06T12:14:13.321Z,-8.05863
2022-12-06T12:19:14.963Z,-7.897
2022-12-06T12:24:16.610Z,-8.0491
2022-12-06T12:29:18.255Z,-7.90812
2022-12-06T12:34:19.910Z,-7.97226
2022-12-06T12:39:21.557Z,-8.31583
2022-12-06T12:44:36.866Z,-8.22851
2022-12-06T12:49:39.157Z,-8.01512
2022-12-06T12:54:40.999Z,-8.23581
2022-12-06T12:59:42.635Z,-8.13039
2022-12-06T13:04:44.255Z,-7.93955
2022-12-06T13:09:45.869Z,-8.03957
2022-12-06T13:14:47.468Z,-7.87954
2022-12-06T13:19:53.268Z,-7.68362
2022-12-06T13:24:55.106Z,-7.61916
2022-12-06T13:29:56.719Z,-7.34005
2022-12-06T13:34:59.054Z,-7.47119
2022-12-06T13:40:01.191Z,-7.46611
2022-12-06T13:45:03.105Z,-7.82778
2022-12-06T13:50:05.073Z,-7.88176
2022-12-06T13:55:06.837Z,-8.07038
2022-12-06T14:00:08.452Z,-7.67663
2022-12-06T14:05:10.069Z,-7.86715
2022-12-06T14:10:12.144Z,-7.78142
2022-12-06T14:15:13.730Z,-7.92749
2022-12-06T14:20:15.409Z,-7.52834
2022-12-06T14:25:17.045Z,-7.58931
2022-12-06T14:30:24.855Z,-7.68711
2022-12-06T14:35:27.143Z,-7.66488
2022-12-06T14:40:45.390Z,-7.63599
2022-12-06T14:45:48.805Z,-7.89986
2022-12-06T14:50:50.486Z,-7.70077
2022-12-06T14:55:52.077Z,-7.36132
2022-12-06T15:00:53.698Z,-7.12285
2022-12-06T15:05:55.325Z,-6.87358
2022-12-06T15:10:56.981Z,-7.12539
2022-12-06T15:15:58.975Z,-7.05903
2022-12-06T15:21:00.687Z,-7.21176
2022-12-06T15:26:02.275Z,-7.60296
2022-12-06T15:31:03.964Z,-7.61948
2022-12-06T15:36:05.672Z,-7.53819
2022-12-06T15:41:07.290Z,-7.69505
2022-12-06T15:46:08.977Z,-7.65187
2022-12-06T15:51:12.280Z,-7.63504
2022-12-06T15:56:15.586Z,-7.54359
2022-12-06T16:01:17.194Z,-7.53851
2022-12-06T16:06:18.811Z,-7.60074
2022-12-06T16:11:20.625Z,-7.58487
2022-12-06T16:16:22.253Z,-6.73196
2022-12-06T16:21:23.909Z,-6.9463
2022-12-06T16:26:25.503Z,-6.64242
2022-12-06T16:31:27.337Z,-7.08157
2022-12-06T16:36:29.150Z,-7.20414
2022-12-06T16:41:30.797Z,-7.26733
2022-12-06T16:46:33.155Z,-7.00758
2022-12-06T16:51:34.874Z,-6.62813
2022-12-06T16:56:41.388Z,-7.10856
2022-12-06T17:01:43.386Z,-7.03362
2022-12-06T17:06:46.407Z,-7.02695
2022-12-06T17:11:48.013Z,-7.32607
2022-12-06T17:16:49.652Z,-7.09268
2022-12-06T17:21:51.372Z,-7.26225
2022-12-06T17:26:52.973Z,-6.8612
2022-12-06T17:31:54.694Z,-6.69068
2022-12-06T17:36:56.524Z,-7.006
2022-12-06T17:41:58.173Z,-6.87327
2022-12-06T17:46:59.782Z,-6.62527
2022-12-06T17:52:01.437Z,-6.34679
2022-12-06T17:57:03.057Z,-6.55732
2022-12-06T18:02:16.543Z,-6.5624
2022-12-06T18:07:19.429Z,-6.25216
2022-12-06T18:12:21.066Z,-6.37981
2022-12-06T18:17:22.672Z,-6.24613
2022-12-06T18:22:24.322Z,-6.46777
2022-12-06T18:27:25.989Z,-6.65861
2022-12-06T18:32:27.704Z,-6.29376
2022-12-06T18:37:29.288Z,-5.92922
2022-12-06T18:42:30.916Z,-6.25121
2022-12-06T18:47:32.752Z,-6.27534
2022-12-06T18:52:34.448Z,-6.36743
2022-12-06T18:57:36.655Z,-6.38426
2022-12-06T19:02:38.371Z,-6.21215
2022-12-06T19:07:40.143Z,-5.98511
2022-12-06T19:12:41.880Z,-5.74124
2022-12-06T19:17:43.489Z,-5.96383
2022-12-06T19:22:45.110Z,-6.16865
2022-12-06T19:27:46.698Z,-6.05751
2022-12-06T19:32:53.263Z,-6.17309
2022-12-06T19:37:54.876Z,-6.01242
2022-12-06T19:42:56.484Z,-5.98162
2022-12-06T19:47:58.071Z,-6.13658
2022-12-06T19:52:59.665Z,-5.64343
2022-12-06T19:58:01.287Z,-5.36146
2022-12-06T20:03:03.025Z,-5.3967
2022-12-06T20:08:04.715Z,-5.67995
2022-12-06T20:13:06.388Z,-5.88096
2022-12-06T20:18:08.052Z,-5.30684
2022-12-06T20:23:10.740Z,-5.22333
2022-12-06T20:28:13.832Z,-5.20396
2022-12-06T20:33:15.559Z,-5.08107
2022-12-06T20:38:17.202Z,-4.52536
2022-12-06T20:43:18.833Z,-5.67043
2022-12-06T20:48:20.469Z,-5.85333
2022-12-06T20:53:22.066Z,-5.44973
2022-12-06T20:58:23.672Z,-5.73139
2022-12-06T21:03:25.257Z,-5.25953
2022-12-06T21:08:26.942Z,-5.49705
2022-12-06T21:13:28.543Z,-5.99082
2022-12-06T21:18:30.255Z,-5.21761
2022-12-06T21:23:32.060Z,-5.86349
2022-12-06T21:28:33.658Z,-5.46879
2022-12-06T21:33:35.291Z,-5.53896
2022-12-06T21:38:37.062Z,-5.52055
2022-12-06T21:43:38.668Z,-5.21824
2022-12-06T21:48:40.288Z,-5.49832
2022-12-06T21:53:41.921Z,-5.15188
2022-12-06T21:58:43.571Z,-5.2319
2022-12-06T22:03:45.187Z,-4.81528
2022-12-06T22:08:46.789Z,-5.74886
2022-12-06T22:13:48.586Z,-5.1233
2022-12-06T22:18:50.199Z,-5.59803
2022-12-06T22:23:51.833Z,-5.21729
2022-12-06T22:28:53.677Z,-5.54817
2022-12-06T22:33:55.318Z,-5.99495
2022-12-06T22:38:56.986Z,-5.58056
2022-12-06T22:43:58.610Z,-5.70599
2022-12-06T22:49:00.243Z,-5.8673
2022-12-06T22:54:01.886Z,-5.62533
2022-12-06T22:59:03.527Z,-5.70631
2022-12-06T23:04:05.437Z,-5.31541
2022-12-06T23:09:07.322Z,-5.44148
2022-12-06T23:14:08.979Z,-5.612
2022-12-06T23:19:10.590Z,-5.84476
2022-12-06T23:24:12.214Z,-5.6193
2022-12-06T23:29:13.806Z,-5.8292
2022-12-06T23:34:15.425Z,-5.68122
2022-12-06T23:39:17.086Z,-5.78061
2022-12-06T23:44:18.723Z,-5.59866
2022-12-06T23:49:20.376Z,-6.22517
2022-12-06T23:54:22.166Z,-5.65328
2022-12-06T23:59:23.795Z,-5.63486
